createdAt,value
2019-03-29T01:09:19.231Z,84.73
2019-03-29T02:04:35.289Z,84.73
2019-03-29T02:08:37.971Z,84.73
2019-03-29T02:11:06.794Z,84.73
2019-03-29T02:13:35.277Z,81.84
2019-03-29T02:16:03.971Z,82.11
2019-03-29T02:18:32.867Z,82.09
2019-03-29T02:21:01.741Z,82.17
2019-03-29T02:23:30.882Z,82.32
2019-03-29T02:25:59.591Z,82.41
2019-03-29T02:28:28.086Z,82.46
2019-03-29T07:49:09.023Z,82.55
2019-03-29T07:51:37.861Z,82.55
2019-03-29T07:54:06.341Z,66.98
2019-03-29T07:56:35.010Z,67.63
2019-03-29T07:59:03.524Z,67.15
2019-03-29T08:01:32.587Z,66.86
2019-03-29T08:04:01.422Z,66.86
2019-03-29T08:06:29.900Z,66.01
2019-03-29T08:08:58.487Z,65.81
2019-03-29T08:11:28.387Z,65.31
2019-03-29T08:13:57.309Z,64.79
2019-03-29T08:16:25.819Z,64.19
2019-03-29T08:18:54.424Z,63.92
2019-03-29T08:21:23.293Z,64.17
2019-03-29T08:23:51.941Z,63.92
2019-03-29T08:26:20.426Z,64.11
2019-03-29T08:28:48.913Z,64.17
2019-03-29T08:31:17.460Z,62.97
2019-03-29T08:33:46.130Z,63.46
2019-03-29T08:36:14.851Z,62.55
2019-03-29T08:38:43.642Z,62.24
2019-03-29T08:41:12.117Z,62.38
2019-03-29T08:43:40.636Z,62.49
2019-03-29T08:46:09.183Z,62.52
2019-03-29T08:48:37.850Z,61.84
2019-03-29T08:51:06.367Z,61.52
2019-03-29T08:53:35.239Z,60.33
2019-03-29T08:56:03.815Z,59.45
2019-03-29T08:58:32.300Z,58.72
2019-03-29T09:01:00.942Z,59.32
2019-03-29T09:03:29.701Z,59.07
2019-03-29T09:05:58.241Z,58.82
2019-03-29T09:08:26.971Z,58.27
2019-03-29T09:10:55.442Z,57.43
2019-03-29T09:13:24.336Z,57.05
2019-03-29T09:15:53.100Z,56.52
2019-03-29T09:18:21.585Z,56.36
2019-03-29T09:20:50.208Z,56.04
2019-03-29T09:23:18.879Z,55.66
2019-03-29T09:25:47.364Z,55.21
2019-03-29T09:28:15.953Z,54.83
2019-03-29T09:30:44.832Z,54.45
2019-03-29T09:33:13.597Z,54.38
2019-03-29T09:35:42.862Z,54.31
2019-03-29T09:38:12.021Z,52.96
2019-03-29T09:40:40.518Z,53.57
2019-03-29T09:43:09.449Z,53.17
2019-03-29T09:45:41.079Z,53.44
2019-03-29T09:48:08.172Z,53.61
2019-03-29T09:50:36.834Z,52.08
2019-03-29T09:53:05.412Z,52.15
2019-03-29T09:55:35.127Z,52.40
2019-03-29T09:58:03.730Z,52.53
2019-03-29T10:00:32.457Z,52.87
2019-03-29T10:03:00.941Z,52.71
2019-03-29T10:05:31.352Z,52.25
2019-03-29T10:07:59.843Z,52.58
2019-03-29T10:10:28.405Z,52.90
2019-03-29T10:12:56.999Z,53.05
2019-03-29T10:15:25.979Z,52.98
2019-03-29T10:17:54.626Z,52.25
2019-03-29T10:20:23.115Z,52.25
2019-03-29T10:22:51.788Z,51.49
2019-03-29T10:25:20.516Z,51.00
2019-03-29T10:27:49.246Z,51.60
2019-03-29T10:30:37.406Z,51.37
2019-03-29T10:33:06.243Z,51.11
2019-03-29T10:35:50.253Z,50.95
2019-03-29T10:38:06.530Z,51.04
2019-03-29T10:40:35.273Z,51.25
2019-03-29T10:43:03.990Z,51.21
2019-03-29T10:45:38.022Z,51.57
2019-03-29T10:48:03.283Z,52.55
2019-03-29T10:50:31.756Z,52.88
2019-03-29T10:53:00.878Z,53.16
2019-03-29T10:55:29.461Z,53.45
2019-03-29T10:57:57.985Z,53.31
2019-03-29T11:00:38.138Z,53.42
2019-03-29T11:03:07.732Z,53.55
2019-03-29T11:05:36.318Z,53.62
2019-03-29T11:08:05.270Z,53.48
2019-03-29T11:10:36.849Z,53.85
2019-03-29T11:13:13.226Z,54.29
2019-03-29T11:15:36.236Z,54.41
2019-03-29T11:18:05.683Z,54.52
2019-03-29T11:20:34.176Z,54.45
2019-03-29T11:23:02.732Z,54.52
2019-03-29T11:25:31.292Z,54.43
2019-03-29T11:28:00.056Z,53.92
2019-03-29T11:30:41.426Z,53.50
2019-03-29T11:32:58.852Z,53.35
2019-03-29T11:35:28.619Z,52.80
2019-03-29T11:37:57.196Z,52.69
2019-03-29T11:40:25.669Z,53.18
2019-03-29T11:42:54.168Z,53.07
2019-03-29T11:45:22.953Z,51.86
2019-03-29T11:47:51.430Z,52.46
2019-03-29T11:50:19.891Z,52.06
2019-03-29T11:52:48.506Z,51.53
2019-03-29T11:55:16.980Z,50.81
2019-03-29T11:57:45.457Z,50.95
2019-03-29T12:00:14.971Z,50.90
2019-03-29T12:02:43.481Z,50.88
2019-03-29T12:05:12.046Z,50.17
2019-03-29T12:07:40.576Z,50.16
2019-03-29T12:10:09.473Z,49.34
2019-03-29T12:12:38.077Z,49.77
2019-03-29T12:15:08.471Z,49.40
2019-03-29T12:17:37.060Z,49.49
2019-03-29T12:20:07.201Z,49.05
2019-03-29T12:22:36.139Z,48.93
2019-03-29T12:25:06.598Z,48.92
2019-03-29T12:27:35.082Z,48.50
2019-03-29T12:30:05.443Z,48.11
2019-03-29T12:32:34.131Z,47.71
2019-03-29T12:35:02.613Z,47.91
2019-03-29T12:37:32.323Z,47.91
2019-03-29T12:40:00.803Z,48.00
2019-03-29T12:42:29.362Z,47.24
2019-03-29T12:44:57.869Z,47.12
2019-03-29T12:47:26.351Z,47.55
2019-03-29T12:49:56.369Z,47.32
2019-03-29T12:52:25.315Z,48.05
2019-03-29T12:54:53.918Z,48.17
2019-03-29T12:57:22.431Z,47.88
2019-03-29T12:59:51.357Z,48.33
2019-03-29T13:02:19.910Z,48.77
2019-03-29T13:04:48.459Z,48.25
2019-03-29T13:07:17.057Z,48.10
2019-03-29T13:09:45.632Z,48.06
2019-03-29T13:12:14.175Z,47.72
2019-03-29T13:14:42.740Z,47.45
2019-03-29T13:17:11.273Z,47.80
2019-03-29T13:19:39.782Z,47.36
2019-03-29T13:22:09.278Z,47.23
2019-03-29T13:24:37.762Z,46.72
2019-03-29T13:27:06.310Z,46.34
2019-03-29T13:29:34.816Z,46.54
2019-03-29T13:32:03.302Z,46.20
2019-03-29T13:34:31.771Z,46.00
2019-03-29T13:37:00.603Z,45.36
2019-03-29T13:39:29.074Z,44.77
2019-03-29T13:41:57.560Z,42.63
2019-03-29T13:44:28.309Z,43.25
2019-03-29T13:46:56.427Z,43.44
2019-03-29T13:49:24.922Z,43.87
2019-03-29T13:51:53.411Z,43.76
2019-03-29T13:54:21.880Z,43.88
2019-03-29T13:56:50.439Z,44.18
2019-03-29T13:59:19.169Z,44.04
2019-03-29T14:01:47.662Z,44.67
2019-03-29T14:04:16.169Z,45.24
2019-03-29T14:06:45.048Z,45.84
2019-03-29T14:09:13.559Z,45.57
2019-03-29T14:11:42.040Z,45.20
2019-03-29T14:14:10.734Z,45.00
2019-03-29T14:16:39.208Z,44.33
2019-03-29T14:19:07.863Z,44.39
2019-03-29T14:21:36.381Z,44.72
2019-03-29T14:24:04.988Z,44.83
2019-03-29T14:26:33.469Z,45.23
2019-03-29T14:29:02.401Z,45.25
2019-03-29T14:31:31.030Z,44.94
2019-03-29T14:33:59.521Z,44.48
2019-03-29T14:36:28.097Z,44.38
2019-03-29T14:38:56.572Z,44.29
2019-03-29T14:41:25.179Z,43.86
2019-03-29T14:43:53.712Z,43.67
2019-03-29T14:46:22.207Z,43.38
2019-03-29T14:48:50.870Z,43.17
2019-03-29T14:51:19.688Z,43.12
2019-03-29T14:53:48.198Z,42.96
2019-03-29T14:56:16.682Z,42.69
2019-03-29T14:58:45.327Z,42.42
2019-03-29T15:01:13.859Z,42.39
2019-03-29T15:03:42.366Z,42.06
2019-03-29T15:06:11.549Z,41.41
2019-03-29T15:08:40.376Z,41.19
2019-03-29T15:11:21.630Z,40.93
2019-03-29T15:13:39.390Z,40.86
2019-03-29T15:16:08.061Z,40.66
2019-03-29T15:18:37.000Z,40.29
2019-03-29T15:21:06.016Z,40.62
2019-03-29T15:23:34.501Z,40.61
2019-03-29T15:26:03.218Z,40.60
2019-03-29T15:28:31.933Z,39.89
2019-03-29T15:31:01.661Z,39.81
2019-03-29T15:33:30.150Z,39.63
2019-03-29T15:35:58.889Z,39.67
2019-03-29T15:38:27.464Z,39.52
2019-03-29T15:40:58.633Z,39.34
2019-03-29T15:43:27.138Z,38.97
2019-03-29T15:45:55.623Z,38.92
2019-03-29T15:48:24.156Z,38.85
2019-03-29T15:50:54.075Z,38.82
2019-03-29T15:53:22.584Z,38.74
2019-03-29T15:55:51.085Z,38.96
2019-03-29T15:58:19.641Z,38.70
2019-03-29T16:00:48.194Z,38.45
2019-03-29T16:03:16.663Z,38.52
2019-03-29T16:05:48.331Z,38.55
2019-03-29T16:08:15.601Z,38.28
2019-03-29T16:10:44.101Z,38.30
2019-03-29T16:13:12.660Z,39.04
2019-03-29T16:15:41.523Z,39.54
2019-03-29T16:18:10.082Z,39.67
2019-03-29T16:20:38.593Z,39.76
2019-03-29T16:23:07.150Z,40.02
2019-03-29T16:25:35.602Z,40.10
2019-03-29T16:28:04.168Z,40.40
2019-03-29T16:30:32.653Z,40.56
2019-03-29T16:33:01.112Z,40.65
2019-03-29T16:35:30.267Z,40.93
2019-03-29T16:37:58.746Z,41.40
2019-03-29T16:40:27.279Z,41.95
2019-03-29T16:42:55.822Z,42.28
2019-03-29T16:45:24.567Z,42.58
2019-03-29T16:47:53.320Z,43.09
2019-03-29T16:50:21.955Z,43.15
2019-03-29T16:52:50.532Z,43.24
2019-03-29T16:55:19.049Z,43.65
2019-03-29T16:57:48.293Z,44.09
2019-03-29T17:00:16.896Z,44.17
2019-03-29T17:02:45.371Z,44.69
2019-03-29T17:05:14.250Z,45.24
2019-03-29T17:07:42.783Z,45.76
2019-03-29T17:10:12.906Z,46.50
2019-03-29T17:12:41.622Z,47.15
2019-03-29T17:15:10.598Z,47.54
2019-03-29T17:17:39.070Z,48.26
2019-03-29T17:20:09.011Z,48.75
2019-03-29T17:22:37.936Z,49.48
2019-03-29T17:25:08.767Z,50.07
2019-03-29T17:27:37.754Z,50.60
2019-03-29T17:30:08.429Z,51.30
2019-03-29T17:32:37.175Z,51.72
2019-03-29T17:35:07.181Z,52.21
2019-03-29T17:37:35.732Z,52.78
2019-03-29T17:40:08.902Z,53.29
2019-03-29T17:42:37.649Z,53.86
2019-03-29T17:45:08.024Z,54.56
2019-03-29T17:47:36.609Z,54.99
2019-03-29T17:50:06.522Z,55.57
2019-03-29T17:52:35.036Z,56.06
2019-03-29T17:55:03.871Z,56.58
2019-03-29T17:57:32.396Z,57.09
2019-03-29T18:00:01.264Z,57.73
2019-03-29T18:02:29.773Z,58.22
2019-03-29T18:04:59.211Z,58.85
2019-03-29T18:07:27.737Z,59.32
2019-03-29T18:09:56.607Z,59.88
2019-03-29T18:12:25.175Z,60.53
2019-03-29T18:14:53.682Z,61.18
2019-03-29T18:17:22.202Z,61.67
2019-03-29T18:19:50.804Z,61.94
2019-03-29T18:22:19.296Z,62.25
2019-03-29T18:24:47.885Z,62.73
2019-03-29T18:27:16.404Z,63.34
2019-03-29T18:29:44.976Z,63.67
2019-03-29T18:32:13.695Z,64.06
2019-03-29T18:34:42.174Z,64.35
2019-03-29T18:37:13.401Z,64.61
2019-03-29T18:39:43.699Z,64.99
2019-03-29T18:42:12.170Z,65.45
2019-03-29T18:44:40.826Z,65.91
2019-03-29T18:47:09.342Z,66.20
2019-03-29T18:49:38.065Z,66.49
2019-03-29T18:52:06.847Z,66.72
2019-03-29T18:54:35.379Z,66.86
2019-03-29T18:57:03.863Z,67.03
2019-03-29T18:59:32.361Z,67.16
2019-03-29T19:02:01.008Z,67.46
2019-03-29T19:04:29.498Z,67.54
2019-03-29T19:06:58.036Z,67.83
2019-03-29T19:09:26.626Z,67.89
2019-03-29T19:11:55.145Z,68.09
2019-03-29T19:14:23.659Z,68.22
2019-03-29T19:16:58.753Z,68.41
2019-03-29T19:19:22.823Z,68.67
2019-03-29T19:21:51.368Z,68.97
2019-03-29T19:24:19.941Z,69.38
2019-03-29T19:26:48.486Z,69.80
2019-03-29T19:29:17.100Z,70.33
2019-03-29T19:31:46.208Z,72.12
2019-03-29T19:34:14.765Z,71.95
2019-03-29T19:36:43.271Z,72.06
2019-03-29T19:39:11.794Z,72.23
2019-03-29T19:41:40.411Z,72.04
2019-03-29T19:44:08.897Z,71.68
2019-03-29T19:46:37.497Z,71.65
2019-03-29T19:49:05.983Z,71.75
2019-03-29T19:51:34.472Z,72.06
2019-03-29T19:54:07.630Z,72.35
2019-03-29T19:56:34.760Z,72.60
2019-03-29T19:59:03.239Z,72.50
2019-03-29T20:01:31.837Z,72.60
2019-03-29T20:04:00.392Z,72.75
2019-03-29T20:06:28.875Z,72.71
2019-03-29T20:09:00.944Z,72.67
2019-03-29T20:11:27.845Z,72.73
2019-03-29T20:13:56.431Z,72.64
2019-03-29T20:16:26.233Z,72.75
2019-03-29T20:18:55.264Z,72.79
2019-03-29T20:21:24.219Z,73.02
2019-03-29T20:23:52.871Z,73.38
2019-03-29T20:26:21.587Z,73.66
2019-03-29T20:28:50.370Z,74.00
2019-03-29T20:31:19.386Z,74.34
2019-03-29T20:33:48.275Z,74.68
2019-03-29T20:36:22.811Z,74.99
2019-03-29T20:38:47.804Z,75.26
2019-03-29T20:41:17.195Z,75.62
2019-03-29T20:43:46.126Z,75.97
2019-03-29T20:46:14.790Z,76.22
2019-03-29T20:48:43.754Z,76.48
2019-03-29T20:51:12.779Z,76.65
2019-03-29T20:53:43.660Z,76.87
2019-03-29T20:56:13.655Z,77.04
2019-03-29T20:58:42.453Z,77.13
2019-03-29T21:01:11.098Z,77.27
2019-03-29T21:03:39.762Z,77.38
2019-03-29T21:06:08.392Z,77.54
2019-03-29T21:08:37.278Z,77.80
2019-03-29T21:11:06.166Z,78.06
2019-03-29T21:13:35.019Z,78.43
2019-03-29T21:16:04.064Z,78.53
2019-03-29T21:18:32.529Z,78.59
2019-03-29T21:21:01.344Z,78.72
2019-03-29T21:23:29.864Z,78.89
2019-03-29T21:25:58.339Z,79.13
2019-03-29T21:28:26.817Z,79.41
2019-03-29T21:30:55.518Z,79.70
2019-03-29T21:33:24.805Z,79.86
2019-03-29T21:35:53.733Z,79.98
2019-03-29T21:38:26.909Z,80.18
2019-03-29T21:40:55.359Z,80.31
2019-03-29T21:43:23.872Z,80.44
2019-03-29T21:45:52.661Z,80.64
2019-03-29T21:48:28.564Z,80.71
2019-03-29T21:50:51.757Z,80.76
2019-03-29T21:53:20.298Z,80.82
2019-03-29T21:55:48.897Z,80.95
2019-03-29T21:58:17.351Z,81.08
2019-03-29T22:00:46.101Z,81.19
2019-03-29T22:03:14.572Z,81.23
2019-03-29T22:05:43.053Z,81.32
2019-03-29T22:08:11.562Z,81.39
2019-03-29T22:10:40.194Z,81.49
2019-03-29T22:13:08.959Z,81.62
2019-03-29T22:15:37.838Z,81.74
2019-03-29T22:18:07.022Z,81.95
2019-03-29T22:20:35.556Z,82.08
2019-03-29T22:23:04.173Z,82.29
2019-03-29T22:25:32.659Z,82.51
2019-03-29T22:28:01.133Z,82.57
2019-03-29T22:30:29.935Z,82.62
2019-03-29T22:32:58.420Z,82.74
2019-03-29T22:35:26.923Z,82.81
2019-03-29T22:37:55.792Z,82.91
2019-03-29T22:40:24.345Z,82.93
2019-03-29T22:42:52.942Z,82.87
2019-03-29T22:45:21.454Z,82.81
2019-03-29T22:47:49.936Z,82.64
2019-03-29T22:50:18.488Z,82.59
2019-03-29T22:52:47.189Z,82.75
2019-03-29T22:55:15.938Z,82.84
2019-03-29T22:57:44.425Z,82.89
2019-03-29T23:00:34.307Z,82.94
2019-03-29T23:03:02.895Z,82.93
2019-03-29T23:05:31.448Z,82.97
2019-03-29T23:07:59.921Z,83.03
2019-03-29T23:10:28.415Z,83.05
2019-03-29T23:12:58.257Z,83.13
2019-03-29T23:15:27.177Z,83.24
2019-03-29T23:17:55.659Z,83.21
2019-03-29T23:20:24.208Z,83.17
2019-03-29T23:22:52.786Z,83.18
2019-03-29T23:25:21.273Z,83.33
2019-03-29T23:27:49.759Z,83.37
2019-03-29T23:30:19.103Z,83.33
2019-03-29T23:32:47.573Z,83.34
2019-03-29T23:35:16.236Z,83.38
2019-03-29T23:37:44.915Z,83.40
2019-03-29T23:40:13.422Z,83.38
2019-03-29T23:42:41.916Z,83.44
2019-03-29T23:45:10.674Z,83.58
2019-03-29T23:47:39.159Z,83.69
2019-03-29T23:50:08.264Z,83.80
2019-03-29T23:52:37.076Z,83.83
2019-03-29T23:55:06.255Z,83.90
2019-03-29T23:57:34.761Z,84.04
